Time;durP1;ratioP1;P1;durP2;ratioP2;P2;SDS_P1;SDS_P2;PMS_P1;PMS_P2;Temp;Humidity;BMP_temperature;BMP_pressure;BME280_temperature;BME280_humidity;BME280_pressure;Samples;Min_cycle;Max_cycle;Signal;HPM_P1;HPM_P2
2023/10/11 00:03:52;;;;;;;8.68;3.30;;;;;;;1.75;78.00;99415.28;5091777;28;20063;-59
2023/10/11 00:05:47;;;;;;;5.78;3.03;;;;;;;1.75;77.48;99423.94;5077623;28;20420;-59
2023/10/11 00:08:18;;;;;;;5.68;3.22;;;;;;;1.78;77.37;99428.00;5091730;28;20467;-57
2023/10/11 00:10:53;;;;;;;4.95;3.00;;;;;;;1.85;77.42;99433.31;5091612;28;20052;-57
2023/10/11 00:13:24;;;;;;;5.05;3.20;;;;;;;1.81;77.13;99423.22;5091636;28;20040;-60
2023/10/11 00:15:51;;;;;;;4.53;2.80;;;;;;;1.86;77.14;99425.31;5073805;28;20067;-60
2023/10/11 00:18:30;;;;;;;4.28;2.80;;;;;;;1.86;77.07;99433.16;5091769;28;20036;-59
2023/10/11 00:20:59;;;;;;;4.47;2.95;;;;;;;1.83;76.98;99433.50;5073773;28;20032;-59
2023/10/11 00:23:27;;;;;;;3.75;2.67;;;;;;;1.89;77.06;99438.00;5091722;28;20123;-59
2023/10/11 00:26:01;;;;;;;5.03;3.22;;;;;;;1.86;76.67;99445.41;5073591;28;20040;-59
2023/10/11 00:28:31;;;;;;;4.13;2.70;;;;;;;1.88;77.00;99441.59;5091760;28;20048;-57
2023/10/11 00:31:00;;;;;;;5.22;2.97;;;;;;;1.88;76.72;99440.78;5073521;28;20568;-60
2023/10/11 00:33:26;;;;;;;5.47;3.10;;;;;;;1.91;76.57;99450.88;5056726;28;20076;-59
2023/10/11 00:35:52;;;;;;;4.60;3.25;;;;;;;1.91;76.91;99438.66;5091691;28;20040;-59
2023/10/11 00:38:20;;;;;;;5.00;2.90;;;;;;;1.90;76.84;99450.09;5091585;28;20048;-59
2023/10/11 00:41:01;;;;;;;5.45;2.92;;;;;;;1.76;77.15;99446.47;5073300;28;20127;-59
2023/10/11 00:43:41;;;;;;;4.72;3.10;;;;;;;1.69;77.37;99444.75;5091577;28;20043;-59
2023/10/11 00:46:13;;;;;;;5.03;3.27;;;;;;;1.54;77.57;99436.88;5091708;28;20048;-60
2023/10/11 00:49:05;;;;;;;5.63;3.42;;;;;;;1.45;77.78;99440.56;5090690;28;20044;-60
2023/10/11 00:51:31;;;;;;;8.23;3.38;;;;;;;1.29;78.29;99450.16;5073014;28;20056;-59
2023/10/11 00:54:01;;;;;;;7.65;3.08;;;;;;;1.19;79.14;99452.19;5056487;28;20400;-59
2023/10/11 00:56:31;;;;;;;3.78;3.00;;;;;;;1.09;79.10;99457.66;5073077;28;20393;-59
2023/10/11 00:59:08;;;;;;;5.95;2.95;;;;;;;0.97;79.67;99464.28;5089878;28;20036;-58
2023/10/11 01:01:38;;;;;;;8.75;3.08;;;;;;;0.81;80.15;99459.97;5068414;28;20060;-60
2023/10/11 01:04:06;;;;;;;5.32;3.13;;;;;;;0.67;80.72;99460.69;5069245;28;20555;-60
2023/10/11 01:06:34;;;;;;;4.15;3.00;;;;;;;0.65;81.00;99458.25;5077030;28;20044;-58
2023/10/11 01:09:03;;;;;;;5.10;2.78;;;;;;;0.54;81.58;99469.06;5076599;28;20302;-60
2023/10/11 01:11:29;;;;;;;5.72;2.85;;;;;;;0.51;81.77;99481.66;5094321;28;20548;-60
2023/10/11 01:13:55;;;;;;;5.40;2.88;;;;;;;0.43;82.31;99487.69;5075928;28;20500;-60
2023/10/11 01:16:28;;;;;;;3.35;2.53;;;;;;;0.32;82.39;99488.06;5095218;28;20055;-60
2023/10/11 01:18:54;;;;;;;4.85;3.17;;;;;;;0.28;83.22;99490.19;5076674;28;20097;-60
2023/10/11 01:21:20;;;;;;;4.20;2.75;;;;;;;0.27;83.48;99490.38;5076860;28;20040;-59
2023/10/11 01:23:46;;;;;;;3.50;2.47;;;;;;;0.17;83.39;99488.75;5094959;28;20040;-59
2023/10/11 01:26:12;;;;;;;4.85;2.65;;;;;;;0.13;83.26;99497.91;5060149;28;20127;-59
2023/10/11 01:28:40;;;;;;;5.28;2.90;;;;;;;0.11;83.85;99499.06;5076622;28;20578;-59
2023/10/11 01:31:08;;;;;;;4.00;2.50;;;;;;;0.10;83.91;99506.06;5094895;28;20477;-59
2023/10/11 01:33:43;;;;;;;3.63;2.67;;;;;;;-0.03;83.84;99493.56;5060062;28;20044;-60
2023/10/11 01:36:10;;;;;;;4.50;2.90;;;;;;;-0.04;84.38;99510.16;5094775;28;20040;-59
2023/10/11 01:38:47;;;;;;;6.28;3.00;;;;;;;-0.07;84.28;99500.06;5094299;28;20051;-60
2023/10/11 01:41:21;;;;;;;3.35;2.80;;;;;;;-0.07;83.92;99512.28;5094875;28;20039;-59
2023/10/11 01:43:49;;;;;;;4.00;2.60;;;;;;;-0.11;84.29;99519.63;5094681;28;20040;-60
2023/10/11 01:46:17;;;;;;;3.75;2.58;;;;;;;-0.13;83.99;99525.97;5094694;28;20048;-60
2023/10/11 01:48:44;;;;;;;3.70;2.70;;;;;;;-0.13;83.87;99521.56;5094442;28;20389;-60
2023/10/11 01:51:09;;;;;;;3.72;2.40;;;;;;;-0.16;83.80;99521.09;5076362;28;20538;-60
2023/10/11 01:53:38;;;;;;;3.90;2.85;;;;;;;-0.17;84.40;99519.47;5076383;28;20142;-60
2023/10/11 01:56:05;;;;;;;3.65;2.05;;;;;;;-0.17;83.86;99519.47;5075990;28;20527;-60
2023/10/11 01:58:31;;;;;;;3.58;2.50;;;;;;;-0.18;84.16;99521.25;5075890;28;20043;-60
2023/10/11 02:00:56;;;;;;;3.72;2.45;;;;;;;-0.20;83.82;99518.00;5059216;28;20555;-59
2023/10/11 02:03:24;;;;;;;4.05;2.60;;;;;;;-0.26;83.88;99521.28;5093908;28;20044;-59
2023/10/11 02:05:50;;;;;;;3.15;2.42;;;;;;;-0.26;84.17;99519.47;5076161;28;20409;-59
2023/10/11 02:08:17;;;;;;;3.97;2.70;;;;;;;-0.37;84.13;99519.81;5076158;28;20405;-60
2023/10/11 02:10:44;;;;;;;3.63;2.60;;;;;;;-0.40;84.50;99524.53;5075066;28;20512;-61
2023/10/11 02:13:11;;;;;;;5.85;2.42;;;;;;;-0.40;84.73;99527.94;5094064;28;20043;-60
2023/10/11 02:15:40;;;;;;;3.72;2.58;;;;;;;-0.39;84.15;99526.97;5074951;28;20056;-59
2023/10/11 02:18:10;;;;;;;2.95;2.47;;;;;;;-0.41;84.35;99525.50;5075898;28;20051;-60
2023/10/11 02:20:46;;;;;;;2.90;2.30;;;;;;;-0.47;84.33;99521.78;5075623;28;20131;-59
2023/10/11 02:23:12;;;;;;;5.43;2.80;;;;;;;-0.45;84.51;99525.00;5075924;28;20076;-59
2023/10/11 02:25:40;;;;;;;4.63;2.63;;;;;;;-0.47;84.17;99533.00;5093723;28;20137;-58
2023/10/11 02:28:09;;;;;;;6.80;3.80;;;;;;;-0.52;84.40;99539.66;5093393;28;20036;-59
2023/10/11 02:30:38;;;;;;;6.22;2.90;;;;;;;-0.54;84.70;99539.00;5075426;28;20048;-59
2023/10/11 02:33:07;;;;;;;4.40;2.63;;;;;;;-0.65;84.97;99542.72;5075620;28;20414;-60
2023/10/11 02:35:56;;;;;;;6.22;2.40;;;;;;;-0.63;85.32;99547.78;5070890;28;20040;-59
2023/10/11 02:38:23;;;;;;;4.30;2.78;;;;;;;-0.60;84.83;99553.47;5067450;28;20051;-59
2023/10/11 02:40:55;;;;;;;8.65;3.83;;;;;;;-0.58;85.18;99553.34;5058837;28;20056;-58
2023/10/11 02:43:25;;;;;;;5.32;2.80;;;;;;;-0.58;84.87;99555.94;5075048;28;20040;-60
2023/10/11 02:45:52;;;;;;;6.07;2.85;;;;;;;-0.60;85.12;99563.09;5075313;28;20043;-59
2023/10/11 02:48:19;;;;;;;7.88;4.25;;;;;;;-0.61;84.98;99561.47;5075063;28;20047;-60
2023/10/11 02:50:54;;;;;;;4.43;2.90;;;;;;;-0.63;85.06;99564.22;5075076;28;20051;-58
2023/10/11 02:53:23;;;;;;;4.88;2.80;;;;;;;-0.66;84.80;99561.13;5075143;28;20404;-59
2023/10/11 02:55:58;;;;;;;3.53;2.60;;;;;;;-0.71;85.17;99567.63;5075175;28;20055;-59
2023/10/11 02:58:26;;;;;;;3.60;2.70;;;;;;;-0.76;85.24;99561.28;5093050;28;20142;-59
2023/10/11 03:00:57;;;;;;;3.67;2.60;;;;;;;-0.73;85.73;99571.38;5074716;28;20059;-59
2023/10/11 03:03:26;;;;;;;6.53;2.75;;;;;;;-0.75;85.28;99571.50;5074650;28;20040;-59
2023/10/11 03:05:55;;;;;;;3.78;2.70;;;;;;;-0.71;85.63;99569.41;5074706;28;20086;-60
2023/10/11 03:08:26;;;;;;;5.78;3.50;;;;;;;-0.74;84.85;99573.13;5074828;28;20048;-60
2023/10/11 03:10:53;;;;;;;5.47;2.90;;;;;;;-0.73;84.87;99573.97;5074647;28;20413;-59
2023/10/11 03:13:30;;;;;;;4.18;2.85;;;;;;;-0.76;85.46;99567.28;5074852;28;20040;-58
2023/10/11 03:15:59;;;;;;;4.05;2.70;;;;;;;-0.75;85.12;99574.13;5092779;28;20106;-59
2023/10/11 03:18:33;;;;;;;3.47;2.50;;;;;;;-0.74;85.34;99572.31;5092556;28;20139;-59
2023/10/11 03:21:16;;;;;;;5.18;2.72;;;;;;;-0.74;85.15;99569.72;5074485;28;20071;-58
2023/10/11 03:23:43;;;;;;;3.92;2.75;;;;;;;-0.75;85.46;99571.50;5092630;28;20146;-59
2023/10/11 03:26:18;;;;;;;5.88;3.05;;;;;;;-0.77;85.11;99576.06;5092563;28;20041;-58
2023/10/11 03:28:45;;;;;;;4.50;2.95;;;;;;;-0.81;85.24;99569.56;5091749;28;20071;-59
2023/10/11 03:31:12;;;;;;;5.43;3.20;;;;;;;-0.84;85.53;99571.66;5092539;28;20408;-60
2023/10/11 03:33:41;;;;;;;7.82;3.13;;;;;;;-0.88;85.62;99575.53;5092521;28;20132;-58
2023/10/11 03:36:17;;;;;;;5.55;3.17;;;;;;;-0.87;85.60;99570.19;5092566;28;20150;-59
2023/10/11 03:38:54;;;;;;;6.28;3.33;;;;;;;-0.85;85.47;99577.81;5092002;28;20412;-60
2023/10/11 03:41:29;;;;;;;4.85;3.25;;;;;;;-0.82;85.65;99565.34;5074005;28;20044;-58
2023/10/11 03:44:09;;;;;;;8.48;4.32;;;;;;;-0.83;85.65;99581.91;5092289;28;20090;-58
2023/10/11 03:46:36;;;;;;;6.38;3.63;;;;;;;-0.83;85.70;99574.09;5074332;28;20060;-59
2023/10/11 03:51:43;;;;;;;5.75;3.47;;;;;;;-0.76;85.48;99564.69;5092310;28;20602;-59
2023/10/11 03:54:18;;;;;;;5.72;3.38;;;;;;;-0.71;85.29;99566.81;5092058;28;20044;-59
2023/10/11 03:56:51;;;;;;;7.50;3.47;;;;;;;-0.63;85.39;99577.22;5091970;28;20090;-60
2023/10/11 03:59:18;;;;;;;4.93;3.70;;;;;;;-0.52;84.75;99571.72;5091216;28;20489;-58
2023/10/11 04:01:44;;;;;;;7.28;3.80;;;;;;;-0.48;84.72;99580.84;5092249;28;20127;-59
2023/10/11 04:04:10;;;;;;;7.50;3.30;;;;;;;-0.42;84.62;99568.94;5091788;28;20173;-60
2023/10/11 04:06:35;;;;;;;6.15;3.83;;;;;;;-0.33;84.22;99574.97;5092102;28;20040;-59
2023/10/11 04:09:02;;;;;;;4.90;3.85;;;;;;;-0.36;83.40;99570.91;5073808;28;20046;-60
2023/10/11 04:14:24;;;;;;;8.25;3.92;;;;;;;-0.30;83.56;99570.25;5091776;28;20036;-59
2023/10/11 04:16:53;;;;;;;6.43;4.05;;;;;;;-0.29;83.35;99573.69;5073562;28;20453;-59
2023/10/11 04:19:22;;;;;;;5.53;3.85;;;;;;;-0.26;83.87;99578.59;5091638;28;20051;-60
2023/10/11 04:24:20;;;;;;;6.47;3.70;;;;;;;-0.17;83.11;99576.78;5091511;28;20047;-59
2023/10/11 04:26:53;;;;;;;6.50;3.53;;;;;;;-0.11;83.01;99581.34;5073519;28;20044;-60
2023/10/11 04:29:23;;;;;;;5.68;4.18;;;;;;;-0.11;82.73;99587.38;5073496;28;20036;-58
2023/10/11 04:34:33;;;;;;;5.07;3.30;;;;;;;0.07;82.44;99581.16;5091427;28;20133;-59
2023/10/11 04:37:00;;;;;;;6.78;3.25;;;;;;;0.11;81.81;99583.28;5091813;28;20048;-60
2023/10/11 04:39:43;;;;;;;5.43;3.83;;;;;;;0.17;81.63;99589.63;5059080;28;20126;-60
2023/10/11 04:42:11;;;;;;;6.72;3.78;;;;;;;0.22;81.34;99589.94;5095997;28;20124;-56
2023/10/11 04:44:47;;;;;;;6.88;3.90;;;;;;;0.29;81.43;99593.50;5095235;28;20416;-59
2023/10/11 04:47:17;;;;;;;5.13;3.78;;;;;;;0.38;81.43;99594.31;5095482;28;20485;-59
2023/10/11 04:49:44;;;;;;;7.28;3.78;;;;;;;0.39;80.81;99590.72;5095584;28;20082;-57
2023/10/11 04:52:22;;;;;;;8.45;4.20;;;;;;;0.41;80.79;99597.41;5095763;28;20404;-60
2023/10/11 04:54:54;;;;;;;5.35;4.20;;;;;;;0.46;80.80;99591.69;5095644;28;20463;-59
2023/10/11 04:57:36;;;;;;;9.43;4.82;;;;;;;0.45;80.40;99592.69;5095692;28;20382;-59
2023/10/11 05:00:08;;;;;;;7.30;4.93;;;;;;;0.48;80.93;99584.50;5095073;28;20060;-59
2023/10/11 05:02:33;;;;;;;9.68;5.18;;;;;;;0.49;80.24;99600.97;5095475;28;20036;-59
2023/10/11 05:04:59;;;;;;;8.98;5.28;;;;;;;0.46;80.69;99589.06;5077233;28;20040;-60
2023/10/11 05:07:28;;;;;;;10.48;6.38;;;;;;;0.38;80.44;99589.09;5077556;28;20048;-59
2023/10/11 05:09:59;;;;;;;10.25;6.32;;;;;;;0.40;80.90;99589.75;5096032;28;20450;-58
2023/10/11 05:12:25;;;;;;;11.85;6.90;;;;;;;0.47;80.54;99585.47;5094433;28;20424;-59
2023/10/11 05:14:56;;;;;;;11.07;6.65;;;;;;;0.51;80.27;99584.19;5095667;28;20123;-61
2023/10/11 05:19:56;;;;;;;12.02;7.78;;;;;;;0.62;80.20;99581.22;5095332;28;20130;-61
2023/10/11 05:32:54;;;;;;;12.75;7.30;;;;;;;0.90;79.49;99570.34;5079229;28;20583;-59
2023/10/11 05:51:39;;;;;;;12.68;6.50;;;;;;;1.39;78.20;99577.91;5094248;28;20163;-60
2023/10/11 05:54:09;;;;;;;9.82;6.07;;;;;;;1.42;77.97;99576.75;5075972;28;20055;-60
2023/10/11 05:56:38;;;;;;;11.00;5.77;;;;;;;1.49;78.37;99583.69;5094442;28;20069;-58
2023/10/11 05:59:09;;;;;;;16.83;6.18;;;;;;;1.55;78.31;99576.97;5094055;28;20040;-59
2023/10/11 06:01:34;;;;;;;;;;;;;;;1.59;78.27;99586.13;5094489;28;20056;-58
2023/10/11 06:04:03;;;;;;;9.02;5.47;;;;;;;1.57;78.31;99586.28;5093746;28;19920;-58
2023/10/11 06:06:46;;;;;;;8.10;5.13;;;;;;;1.64;78.42;99583.75;5094259;28;20150;-58
2023/10/11 06:09:18;;;;;;;7.00;5.00;;;;;;;1.75;78.01;99598.22;5091289;28;20039;-55
2023/10/11 06:11:50;;;;;;;9.15;5.13;;;;;;;1.81;78.18;99594.91;5050117;28;20140;-56
2023/10/11 06:14:18;;;;;;;6.72;4.82;;;;;;;1.82;77.53;99596.53;5071966;28;20137;-54
2023/10/11 06:16:49;;;;;;;8.13;4.72;;;;;;;1.92;77.63;99601.53;5093854;28;20048;-54
2023/10/11 06:19:16;;;;;;;7.60;5.05;;;;;;;1.99;77.60;99603.25;5058760;28;20075;-56
2023/10/11 06:21:56;;;;;;;9.13;4.25;;;;;;;2.08;77.30;99611.84;5058967;28;20043;-57
2023/10/11 06:24:26;;;;;;;;;;;;;;;2.12;76.88;99610.53;5044470;28;20166;-57
2023/10/11 06:26:52;;;;;;;14.27;4.78;;;;;;;2.03;77.29;99603.75;5093892;28;19919;-55
2023/10/11 06:29:23;;;;;;;6.05;4.03;;;;;;;2.03;77.17;99607.16;5074107;28;20036;-55
2023/10/11 06:31:53;;;;;;;;;;;;;;;2.12;77.30;99607.06;5079520;28;20045;-58
2023/10/11 06:36:51;;;;;;;7.35;4.00;;;;;;;2.25;77.06;99610.72;5093649;28;20040;-56
2023/10/11 06:42:21;;;;;;;6.78;4.25;;;;;;;2.38;76.60;99604.88;5069304;28;20306;-55
2023/10/11 06:44:48;;;;;;;11.05;3.92;;;;;;;2.47;76.63;99603.81;5093189;28;20047;-55
2023/10/11 06:47:15;;;;;;;6.93;3.60;;;;;;;2.48;76.32;99610.66;5093361;28;20048;-54
2023/10/11 06:49:44;;;;;;;6.10;4.15;;;;;;;2.46;76.22;99602.16;5092908;28;20042;-57
2023/10/11 06:52:11;;;;;;;5.90;3.67;;;;;;;2.60;76.31;99600.56;5093327;28;20033;-58
2023/10/11 06:54:45;;;;;;;6.53;4.13;;;;;;;2.64;76.14;99608.84;5054386;28;20119;-58
2023/10/11 06:57:16;;;;;;;4.13;3.28;;;;;;;2.71;76.38;99605.34;5072897;28;20064;-57
2023/10/11 06:59:56;;;;;;;7.10;3.70;;;;;;;2.75;75.68;99599.75;5057306;28;20111;-55
2023/10/11 07:02:32;;;;;;;5.93;3.63;;;;;;;2.81;75.63;99604.25;5072213;28;20060;-57
2023/10/11 07:05:17;;;;;;;6.97;3.70;;;;;;;2.88;75.44;99597.28;5064366;28;20055;-57
2023/10/11 07:07:48;;;;;;;5.53;3.58;;;;;;;3.00;75.25;99602.88;5072401;28;20044;-57
2023/10/11 07:10:35;;;;;;;6.80;3.30;;;;;;;3.07;74.92;99603.78;5054338;28;20037;-57
2023/10/11 07:13:06;;;;;;;5.30;3.60;;;;;;;3.12;74.68;99598.81;5072237;28;20155;-56
2023/10/11 07:15:37;;;;;;;5.28;3.17;;;;;;;3.09;74.84;99592.13;5068824;28;20047;-55
2023/10/11 07:18:08;;;;;;;5.70;3.85;;;;;;;3.13;74.48;99598.63;5052540;28;20033;-56
2023/10/11 07:20:49;;;;;;;5.07;3.05;;;;;;;3.17;75.00;99599.06;5070621;28;20049;-56
2023/10/11 07:23:19;;;;;;;6.32;3.33;;;;;;;3.32;74.62;99604.25;5070205;28;20036;-57
2023/10/11 07:25:59;;;;;;;4.97;3.00;;;;;;;3.43;73.52;99606.41;5071894;28;20047;-56
2023/10/11 07:28:38;;;;;;;3.65;2.88;;;;;;;3.54;73.48;99599.88;5053448;28;20041;-57
2023/10/11 07:31:04;;;;;;;4.32;3.45;;;;;;;3.61;72.19;99603.34;5069723;28;20135;-54
2023/10/11 07:33:31;;;;;;;5.13;3.45;;;;;;;3.61;72.39;99600.72;5071682;28;20051;-56
2023/10/11 07:36:00;;;;;;;7.93;3.58;;;;;;;3.66;72.25;99603.63;5070739;28;20055;-58
2023/10/11 07:38:34;;;;;;;4.28;2.92;;;;;;;3.69;72.22;99608.47;5071480;28;20433;-58
2023/10/11 07:41:05;;;;;;;7.75;2.95;;;;;;;3.77;71.91;99600.50;5053371;28;20067;-56
2023/10/11 07:43:32;;;;;;;;;;;;;;;3.81;71.78;99608.78;5071904;28;20048;-59
2023/10/11 07:46:01;;;;;;;4.93;2.50;;;;;;;3.86;71.69;99607.22;5070695;28;19924;-57
2023/10/11 07:48:31;;;;;;;3.65;2.90;;;;;;;3.86;71.05;99595.94;5071196;28;20567;-58
2023/10/11 07:51:03;;;;;;;4.53;2.70;;;;;;;3.91;70.62;99605.84;5071863;28;20177;-55
2023/10/11 07:53:28;;;;;;;2.45;2.00;;;;;;;3.94;70.26;99592.34;5070343;28;20044;-57
2023/10/11 07:55:57;;;;;;;4.97;2.60;;;;;;;3.99;70.50;99600.47;5071434;28;20064;-57
2023/10/11 07:58:32;;;;;;;2.35;1.88;;;;;;;4.06;69.26;99606.59;5071193;28;20041;-58
2023/10/11 08:01:15;;;;;;;3.75;2.30;;;;;;;4.12;68.79;99603.22;5086113;28;20111;-56
2023/10/11 08:03:44;;;;;;;6.13;2.35;;;;;;;4.17;69.00;99586.88;5067809;28;20525;-57
2023/10/11 08:06:13;;;;;;;7.85;2.20;;;;;;;4.30;68.79;99597.50;5071605;28;20090;-56
2023/10/11 08:08:40;;;;;;;4.72;2.05;;;;;;;4.39;68.12;99592.91;5081545;28;20071;-56
2023/10/11 08:11:22;;;;;;;4.20;2.45;;;;;;;4.43;67.29;99591.50;5056953;28;20078;-56
2023/10/11 08:13:53;;;;;;;3.60;2.10;;;;;;;4.53;66.69;99598.06;5090627;28;20043;-55
2023/10/11 08:16:18;;;;;;;5.40;2.10;;;;;;;4.64;67.12;99599.31;5091562;28;20055;-56
2023/10/11 08:18:48;;;;;;;4.10;2.20;;;;;;;4.64;65.80;99596.69;5090620;28;20043;-56
2023/10/11 08:21:15;;;;;;;2.40;1.98;;;;;;;4.71;66.17;99594.13;5091256;28;20413;-57
2023/10/11 08:23:44;;;;;;;2.55;1.90;;;;;;;4.74;65.42;99585.84;5090942;28;20123;-56
2023/10/11 08:26:19;;;;;;;2.47;1.65;;;;;;;4.78;66.09;99587.88;5091631;28;20515;-56
2023/10/11 08:28:48;;;;;;;2.10;1.83;;;;;;;4.79;64.53;99583.41;5045260;28;20044;-57
2023/10/11 08:31:35;;;;;;;3.35;1.92;;;;;;;4.85;63.94;99580.00;5071313;28;20037;-56
2023/10/11 08:34:03;;;;;;;2.65;1.75;;;;;;;4.91;63.60;99571.38;5065876;28;20036;-57
2023/10/11 08:36:31;;;;;;;2.78;1.80;;;;;;;4.98;63.33;99572.22;5072815;28;20054;-58
2023/10/11 08:38:59;;;;;;;2.70;1.80;;;;;;;4.99;61.85;99565.94;5090514;28;20032;-56
2023/10/11 08:41:24;;;;;;;2.10;1.70;;;;;;;5.01;61.48;99571.81;5091356;28;20051;-59
2023/10/11 08:43:53;;;;;;;1.77;1.63;;;;;;;5.09;61.17;99577.88;5090696;28;20451;-56
2023/10/11 08:46:23;;;;;;;2.03;1.65;;;;;;;5.18;61.47;99561.78;5073050;28;20042;-59
2023/10/11 08:48:50;;;;;;;2.00;1.60;;;;;;;5.26;61.55;99559.97;5090981;28;20054;-56
2023/10/11 08:51:22;;;;;;;6.15;2.20;;;;;;;5.36;60.66;99557.78;5073081;28;20585;-57
2023/10/11 08:54:00;;;;;;;2.15;1.60;;;;;;;5.47;60.57;99563.25;5072611;28;20092;-57
2023/10/11 08:56:25;;;;;;;3.78;1.90;;;;;;;5.57;60.30;99559.41;5072830;28;20394;-58
2023/10/11 08:58:53;;;;;;;6.18;1.90;;;;;;;5.67;59.31;99554.56;5072854;28;20043;-56
2023/10/11 09:01:24;;;;;;;3.67;2.00;;;;;;;5.74;59.84;99554.59;5091089;28;20591;-57
2023/10/11 09:04:05;;;;;;;2.75;1.80;;;;;;;5.88;59.11;99546.50;5084123;28;20089;-55
2023/10/11 09:06:33;;;;;;;1.83;1.50;;;;;;;6.05;59.19;99548.72;5069696;28;20566;-57
2023/10/11 09:09:02;;;;;;;2.50;1.75;;;;;;;6.12;57.45;99542.47;5081375;28;20470;-56
2023/10/11 09:11:28;;;;;;;2.47;1.70;;;;;;;6.16;56.98;99542.84;5072085;28;20036;-57
2023/10/11 09:14:22;;;;;;;6.65;3.00;;;;;;;6.24;55.95;99540.03;5090524;28;20562;-58
2023/10/11 09:16:50;;;;;;;4.38;1.77;;;;;;;6.33;55.23;99545.88;5073112;28;20050;-58
2023/10/11 09:19:21;;;;;;;3.65;1.90;;;;;;;6.44;53.38;99533.88;5072452;28;20072;-58
2023/10/11 09:22:05;;;;;;;2.35;1.85;;;;;;;6.47;51.91;99536.09;5072752;28;20458;-57
2023/10/11 09:24:38;;;;;;;3.10;1.70;;;;;;;6.56;51.90;99532.25;5091501;28;20036;-57
2023/10/11 09:29:43;;;;;;;1.42;1.25;;;;;;;6.76;50.10;99511.88;5094160;28;20047;-56
2023/10/11 09:32:09;;;;;;;1.60;1.50;;;;;;;6.87;49.84;99517.53;5076311;28;20074;-58
2023/10/11 09:34:41;;;;;;;3.78;1.60;;;;;;;6.92;49.48;99510.63;5059327;28;20032;-57
2023/10/11 09:37:13;;;;;;;2.72;1.65;;;;;;;6.91;49.38;99514.28;5094898;28;20047;-57
2023/10/11 09:39:45;;;;;;;2.15;1.52;;;;;;;6.95;49.95;99501.47;5094182;28;20188;-58
2023/10/11 09:42:22;;;;;;;2.78;1.70;;;;;;;7.02;49.18;99495.16;5094792;28;20040;-58
2023/10/11 09:44:51;;;;;;;3.25;1.70;;;;;;;7.02;49.66;99489.88;5094295;28;20043;-58
2023/10/11 09:47:17;;;;;;;2.20;1.50;;;;;;;7.00;49.49;99491.94;5094606;28;20047;-57
2023/10/11 09:49:47;;;;;;;2.25;1.52;;;;;;;7.05;50.42;99486.81;5093863;28;20160;-61
2023/10/11 09:52:16;;;;;;;;;;;;;;;7.17;49.92;99472.97;5095121;28;20040;-58
2023/10/11 09:54:43;;;;;;;2.83;1.80;;;;;;;7.24;50.86;99463.19;5076366;28;19919;-59
2023/10/11 09:57:13;;;;;;;2.00;1.50;;;;;;;7.27;49.78;99460.94;5059446;28;20119;-58
2023/10/11 09:59:46;;;;;;;3.83;1.90;;;;;;;7.27;49.68;99462.75;5093606;28;20052;-59
2023/10/11 10:02:31;;;;;;;2.20;1.60;;;;;;;7.21;50.54;99463.63;5094265;28;20123;-58
2023/10/11 10:04:57;;;;;;;2.97;1.50;;;;;;;7.24;50.24;99460.56;5089234;28;20127;-57
2023/10/11 10:10:13;;;;;;;2.78;1.70;;;;;;;7.14;49.61;99458.38;5057400;28;20085;-55
2023/10/11 10:12:41;;;;;;;2.50;1.50;;;;;;;7.15;48.84;99461.84;5055003;28;20098;-57
2023/10/11 10:15:57;;;;;;;2.00;1.60;;;;;;;7.16;48.78;99461.63;5046684;28;20447;-57
2023/10/11 10:18:01;;;;;;;2.03;1.40;;;;;;;7.18;48.87;99461.41;5028023;28;20072;-55
2023/10/11 10:20:43;;;;;;;2.13;1.67;;;;;;;7.17;49.08;99465.84;5091956;28;20052;-58
2023/10/11 10:23:16;;;;;;;3.88;1.55;;;;;;;7.25;49.04;99468.25;5090550;28;20413;-57
2023/10/11 10:26:13;;;;;;;4.57;1.75;;;;;;;7.34;49.72;99462.72;5092327;28;20055;-57
2023/10/11 10:28:49;;;;;;;3.22;2.03;;;;;;;7.32;49.14;99457.63;5056883;28;20040;-57
2023/10/11 10:31:17;;;;;;;2.10;1.70;;;;;;;7.41;49.17;99460.81;5093407;28;20524;-57
2023/10/11 10:33:49;;;;;;;4.15;1.55;;;;;;;7.39;48.34;99452.34;5092801;28;20089;-59
2023/10/11 10:36:21;;;;;;;4.32;1.50;;;;;;;7.24;48.34;99452.66;5092274;28;20477;-56
2023/10/11 10:39:47;;;;;;;3.75;1.85;;;;;;;7.29;48.97;99442.25;5093052;28;20129;-57
2023/10/11 10:42:15;;;;;;;4.25;2.25;;;;;;;7.33;49.09;99435.53;5082747;28;20509;-55
2023/10/11 10:44:52;;;;;;;1.90;1.70;;;;;;;7.33;49.31;99432.09;5074616;28;20040;-60
2023/10/11 10:47:22;;;;;;;2.15;1.63;;;;;;;7.39;48.39;99436.50;5074881;28;20067;-58
2023/10/11 10:49:51;;;;;;;3.90;1.98;;;;;;;7.46;48.35;99430.13;5091776;28;20032;-59
2023/10/11 10:52:19;;;;;;;3.92;1.77;;;;;;;7.58;47.84;99430.25;5056116;28;20145;-58
2023/10/11 10:55:05;;;;;;;1.60;1.50;;;;;;;7.59;47.38;99429.25;5090617;28;20066;-59
2023/10/11 10:57:41;;;;;;;3.13;1.67;;;;;;;7.65;47.48;99414.38;5091360;28;20044;-62
2023/10/11 11:00:23;;;;;;;2.63;1.70;;;;;;;7.65;48.28;99422.28;5091296;28;20052;-57
2023/10/11 11:02:50;;;;;;;3.42;1.70;;;;;;;7.76;47.72;99410.19;5091746;28;20391;-59
2023/10/11 11:05:23;;;;;;;3.50;2.00;;;;;;;7.84;47.55;99410.72;5091542;28;20127;-57
2023/10/11 11:07:49;;;;;;;4.35;1.60;;;;;;;7.84;47.63;99407.28;5092875;28;20058;-58
2023/10/11 11:10:30;;;;;;;3.03;1.65;;;;;;;7.89;47.92;99413.53;5092691;28;20044;-58
2023/10/11 11:12:56;;;;;;;2.28;1.70;;;;;;;7.85;46.91;99403.59;5074752;28;20043;-58
2023/10/11 11:15:22;;;;;;;1.67;1.20;;;;;;;7.92;46.89;99405.16;5092193;28;20047;-58
2023/10/11 11:17:50;;;;;;;2.72;1.52;;;;;;;8.04;46.82;99402.59;5074145;28;20416;-58
2023/10/11 11:22:52;;;;;;;4.88;1.70;;;;;;;7.95;46.50;99396.00;5088271;28;20063;-58
2023/10/11 11:28:17;;;;;;;5.10;2.05;;;;;;;7.91;46.05;99392.16;5074357;28;20032;-58
2023/10/11 11:31:03;;;;;;;1.92;1.38;;;;;;;7.84;46.75;99394.09;5091835;28;20044;-56
2023/10/11 11:33:35;;;;;;;3.00;1.40;;;;;;;7.82;46.74;99396.13;5073573;28;20501;-58
2023/10/11 11:36:11;;;;;;;2.65;1.50;;;;;;;7.74;46.54;99397.25;5057597;28;20051;-60
2023/10/11 11:38:37;;;;;;;4.85;1.63;;;;;;;7.76;46.82;99389.88;5073739;28;20036;-58
2023/10/11 11:41:14;;;;;;;2.20;1.50;;;;;;;7.78;47.82;99390.50;5092049;28;20044;-58
2023/10/11 11:43:40;;;;;;;2.75;1.60;;;;;;;7.81;46.89;99378.69;5091991;28;20050;-58
2023/10/11 11:46:06;;;;;;;1.55;1.45;;;;;;;7.62;47.14;99372.59;5092266;28;20068;-59
2023/10/11 11:48:41;;;;;;;3.78;1.70;;;;;;;7.68;47.54;99366.44;5091177;28;20189;-58
2023/10/11 11:51:16;;;;;;;4.20;1.60;;;;;;;7.69;47.31;99354.88;5092251;28;20039;-57
2023/10/11 11:53:43;;;;;;;3.08;1.60;;;;;;;7.67;47.95;99365.63;5091626;28;20036;-57
2023/10/11 11:56:11;;;;;;;2.38;1.60;;;;;;;7.53;48.01;99360.69;5091798;28;20051;-58
2023/10/11 11:58:46;;;;;;;4.20;1.70;;;;;;;7.62;48.09;99362.84;5091459;28;20166;-56
2023/10/11 12:01:15;;;;;;;2.80;1.63;;;;;;;7.62;48.44;99360.22;5091447;28;20067;-59
2023/10/11 12:03:42;;;;;;;1.88;1.67;;;;;;;7.61;48.20;99355.94;5086403;28;20036;-57
2023/10/11 12:06:21;;;;;;;4.00;1.50;;;;;;;7.56;47.77;99352.34;5071811;28;20044;-59
2023/10/11 12:08:58;;;;;;;1.70;1.50;;;;;;;7.42;48.93;99336.66;5065217;28;20043;-58
2023/10/11 12:11:30;;;;;;;6.45;2.22;;;;;;;7.35;48.62;99340.38;5091687;28;20039;-59
2023/10/11 12:13:57;;;;;;;3.13;2.10;;;;;;;7.23;48.92;99343.72;5073311;28;20047;-59
2023/10/11 12:16:24;;;;;;;3.15;1.90;;;;;;;7.16;49.28;99336.91;5091573;28;20040;-58
2023/10/11 12:18:57;;;;;;;5.70;2.03;;;;;;;7.09;49.63;99328.22;5090866;28;20043;-59
2023/10/11 12:21:23;;;;;;;4.53;1.92;;;;;;;6.98;49.81;99329.75;5091710;28;20433;-56
2023/10/11 12:23:50;;;;;;;5.38;2.28;;;;;;;6.99;50.00;99318.19;5091004;28;20191;-61
2023/10/11 12:26:17;;;;;;;4.47;2.10;;;;;;;7.05;49.38;99315.50;5091603;28;20044;-59
2023/10/11 12:28:46;;;;;;;3.42;2.10;;;;;;;7.09;50.04;99307.16;5090293;28;20040;-56
2023/10/11 12:31:13;;;;;;;6.45;2.60;;;;;;;7.20;50.38;99317.00;5091510;28;20043;-58
2023/10/11 12:33:39;;;;;;;6.20;2.65;;;;;;;7.22;49.83;99307.84;5056193;28;20059;-58
2023/10/11 12:36:06;;;;;;;7.82;2.80;;;;;;;7.22;50.24;99326.28;5073252;28;20043;-58
2023/10/11 12:38:36;;;;;;;5.00;2.42;;;;;;;7.14;50.45;99304.69;5091169;28;20062;-59
2023/10/11 12:41:04;;;;;;;5.03;2.50;;;;;;;7.12;50.87;99296.16;5073170;28;20497;-58
2023/10/11 12:43:30;;;;;;;3.67;2.13;;;;;;;7.12;50.67;99297.00;5090812;28;20051;-57
2023/10/11 12:45:56;;;;;;;3.80;2.65;;;;;;;7.19;50.68;99286.38;5078922;28;20036;-59
2023/10/11 12:48:21;;;;;;;3.75;2.33;;;;;;;7.24;50.73;99292.63;5085826;28;20032;-60
2023/10/11 12:50:49;;;;;;;7.13;2.65;;;;;;;7.24;50.57;99279.44;5091023;28;20548;-57
2023/10/11 12:53:15;;;;;;;3.17;2.10;;;;;;;7.30;51.21;99280.41;5090934;28;20040;-53
2023/10/11 12:55:43;;;;;;;3.92;2.38;;;;;;;7.30;51.66;99269.06;5091359;28;20498;-58
2023/10/11 12:58:11;;;;;;;5.40;2.42;;;;;;;7.32;51.17;99261.72;5090743;28;20036;-58